createdAt,value
2023-05-20T00:02:31.429Z,13.37
2023-05-20T00:07:23.403Z,13.31
2023-05-20T00:12:18.059Z,13.22
2023-05-20T00:17:07.813Z,13.12
2023-05-20T00:21:58.167Z,13.08
2023-05-20T00:26:47.812Z,12.98
2023-05-20T00:31:42.545Z,12.88
2023-05-20T00:36:32.342Z,12.88
2023-05-20T00:41:22.077Z,12.80
2023-05-20T00:46:11.826Z,12.73
2023-05-20T00:51:05.306Z,12.66
2023-05-20T00:55:54.976Z,12.64
2023-05-20T01:00:47.583Z,12.58
2023-05-20T01:05:42.288Z,12.50
2023-05-20T01:10:38.236Z,12.46
2023-05-20T01:15:32.785Z,12.46
2023-05-20T01:20:22.783Z,12.48
2023-05-20T01:25:16.751Z,12.47
2023-05-20T01:30:10.397Z,12.42
2023-05-20T01:35:00.988Z,12.39
2023-05-20T01:39:52.367Z,12.40
2023-05-20T01:44:44.703Z,12.38
2023-05-20T01:49:34.548Z,12.36
2023-05-20T01:54:24.192Z,12.31
2023-05-20T01:59:14.658Z,12.23
2023-05-20T02:04:09.583Z,12.17
2023-05-20T02:08:59.563Z,12.15
2023-05-20T02:13:52.100Z,12.12
2023-05-20T02:18:42.803Z,12.10
2023-05-20T02:23:35.580Z,12.03
2023-05-20T02:28:26.262Z,11.93
2023-05-20T02:33:18.793Z,11.86
2023-05-20T02:38:08.834Z,11.86
2023-05-20T02:43:02.814Z,11.85
2023-05-20T02:47:52.490Z,11.83
2023-05-20T02:52:43.005Z,11.81
2023-05-20T02:57:34.160Z,11.80
2023-05-20T03:02:26.590Z,11.77
2023-05-20T03:07:19.861Z,11.74
2023-05-20T03:12:09.843Z,11.71
2023-05-20T03:17:00.393Z,11.63
2023-05-20T03:21:53.187Z,11.56
2023-05-20T03:26:43.431Z,11.53
2023-05-20T03:31:33.261Z,11.48
2023-05-20T03:36:23.218Z,11.42
2023-05-20T03:41:16.910Z,11.38
2023-05-20T03:46:06.998Z,11.36
2023-05-20T03:50:58.915Z,11.34
2023-05-20T03:55:48.696Z,11.31
2023-05-20T04:00:41.787Z,11.28
2023-05-20T04:05:31.724Z,11.27
2023-05-20T04:10:25.115Z,11.25
2023-05-20T04:15:24.093Z,11.26
2023-05-20T04:20:25.069Z,11.29
2023-05-20T04:25:18.189Z,11.29
2023-05-20T04:30:08.739Z,11.30
2023-05-20T04:35:02.656Z,11.30
2023-05-20T04:39:58.289Z,11.31
2023-05-20T04:44:49.281Z,11.36
2023-05-20T04:49:39.801Z,11.38
2023-05-20T04:54:31.123Z,11.43
2023-05-20T04:59:27.924Z,11.45
2023-05-20T05:04:18.110Z,11.49
2023-05-20T05:09:08.242Z,11.55
2023-05-20T05:14:04.107Z,11.57
2023-05-20T05:19:06.709Z,11.60
2023-05-20T05:24:03.189Z,11.63
2023-05-20T05:28:54.558Z,11.68
2023-05-20T05:33:47.324Z,11.72
2023-05-20T05:38:40.631Z,11.75
2023-05-20T05:43:33.016Z,11.78
2023-05-20T05:48:26.215Z,11.81
2023-05-20T05:53:16.485Z,11.83
2023-05-20T05:58:14.044Z,11.86
2023-05-20T06:03:04.917Z,11.93
2023-05-20T06:07:58.908Z,11.99
2023-05-20T06:12:49.315Z,12.09
2023-05-20T06:17:42.761Z,12.17
2023-05-20T06:22:35.605Z,12.27
2023-05-20T06:27:26.492Z,12.37
2023-05-20T06:32:16.587Z,12.46
2023-05-20T06:37:08.903Z,12.59
2023-05-20T06:41:58.898Z,12.71
2023-05-20T06:46:55.632Z,12.82
2023-05-20T06:51:45.499Z,12.95
2023-05-20T06:56:37.811Z,13.08
2023-05-20T07:01:28.227Z,13.18
2023-05-20T07:06:19.260Z,13.20
2023-05-20T07:11:10.707Z,13.44
2023-05-20T07:16:03.706Z,13.56
2023-05-20T07:20:56.987Z,13.61
2023-05-20T07:26:13.460Z,13.88
2023-05-20T07:31:05.823Z,13.99
2023-05-20T07:35:59.244Z,14.11
2023-05-20T07:40:49.009Z,14.22
2023-05-20T07:45:41.334Z,14.30
2023-05-20T07:50:36.289Z,14.44
2023-05-20T07:55:26.207Z,14.58
2023-05-20T08:00:16.398Z,14.77
2023-05-20T08:05:09.753Z,15.07
2023-05-20T08:10:02.199Z,15.37
2023-05-20T08:14:52.573Z,15.72
2023-05-20T08:19:42.707Z,16.08
2023-05-20T08:24:32.862Z,16.42
2023-05-20T08:29:25.172Z,16.72
2023-05-20T08:34:18.146Z,16.96
2023-05-20T08:39:12.470Z,17.21
2023-05-20T08:44:03.960Z,17.38
2023-05-20T08:48:56.735Z,17.61
2023-05-20T08:53:46.531Z,17.82
2023-05-20T08:58:36.262Z,17.96
2023-05-20T09:03:25.978Z,18.15
2023-05-20T09:08:18.485Z,18.30
2023-05-20T09:13:08.514Z,18.34
2023-05-20T09:17:58.536Z,18.53
2023-05-20T09:22:48.652Z,18.70
2023-05-20T09:27:41.289Z,18.85
2023-05-20T09:32:39.113Z,19.09
2023-05-20T09:37:32.197Z,19.41
2023-05-20T09:42:26.618Z,19.70
2023-05-20T09:47:20.400Z,19.75
2023-05-20T09:52:10.975Z,19.80
2023-05-20T09:57:03.345Z,19.93
2023-05-20T10:01:53.217Z,19.91
2023-05-20T10:07:17.297Z,19.99
2023-05-20T10:12:17.200Z,20.18
2023-05-20T10:17:13.400Z,20.00
2023-05-20T10:22:10.288Z,19.98
2023-05-20T10:27:03.082Z,20.04
2023-05-20T10:31:54.421Z,20.43
2023-05-20T10:36:49.486Z,20.58
2023-05-20T10:41:41.924Z,20.78
2023-05-20T10:46:41.811Z,20.87
2023-05-20T10:51:39.873Z,20.90
2023-05-20T10:56:32.329Z,20.90
2023-05-20T11:01:27.909Z,21.11
2023-05-20T11:06:18.994Z,21.33
2023-05-20T11:11:10.129Z,21.14
2023-05-20T11:16:00.143Z,21.19
2023-05-20T11:20:54.606Z,21.01
2023-05-20T11:25:44.949Z,21.33
2023-05-20T11:30:37.393Z,21.46
2023-05-20T11:35:33.655Z,21.32
2023-05-20T11:40:39.022Z,21.52
2023-05-20T11:45:43.034Z,21.46
2023-05-20T11:50:39.781Z,21.45
2023-05-20T11:55:34.272Z,21.03
2023-05-20T12:00:24.327Z,20.70
2023-05-20T12:05:15.439Z,20.45
2023-05-20T12:10:06.444Z,20.32
2023-05-20T12:15:00.190Z,20.65
2023-05-20T12:19:50.091Z,21.02
2023-05-20T12:24:42.863Z,21.29
2023-05-20T12:29:33.119Z,21.40
2023-05-20T12:34:25.822Z,21.38
2023-05-20T12:39:18.004Z,21.45
2023-05-20T12:44:08.472Z,21.45
2023-05-20T12:49:00.650Z,21.21
2023-05-20T12:53:53.254Z,21.14
2023-05-20T12:58:45.558Z,21.18
2023-05-20T13:03:35.750Z,21.07
2023-05-20T13:08:28.826Z,21.04
2023-05-20T13:13:22.226Z,21.14
2023-05-20T13:18:12.914Z,21.30
2023-05-20T13:23:03.332Z,21.49
2023-05-20T13:27:53.184Z,21.80
2023-05-20T13:32:46.419Z,21.49
2023-05-20T13:37:36.304Z,21.37
2023-05-20T13:42:26.521Z,21.59
2023-05-20T13:47:16.824Z,21.88
2023-05-20T13:52:09.691Z,22.14
2023-05-20T13:56:59.812Z,22.29
2023-05-20T14:01:49.755Z,22.21
2023-05-20T14:06:39.658Z,21.94
2023-05-20T14:11:32.536Z,21.86
2023-05-20T14:16:22.591Z,21.84
2023-05-20T14:21:12.333Z,21.74
2023-05-20T14:26:02.776Z,21.56
2023-05-20T14:30:54.945Z,21.46
2023-05-20T14:35:44.441Z,21.49
2023-05-20T14:40:34.188Z,21.60
2023-05-20T14:45:24.035Z,21.66
2023-05-20T14:50:16.770Z,21.69
2023-05-20T14:55:08.335Z,21.77
2023-05-20T14:59:58.070Z,21.79
2023-05-20T15:04:48.885Z,21.52
2023-05-20T15:09:41.317Z,21.62
2023-05-20T15:14:31.020Z,21.70
2023-05-20T15:19:20.782Z,21.71
2023-05-20T15:24:10.505Z,21.72
2023-05-20T15:29:03.160Z,21.46
2023-05-20T15:33:53.228Z,21.56
2023-05-20T15:38:44.215Z,21.45
2023-05-20T15:43:33.821Z,21.50
2023-05-20T15:48:26.370Z,21.55
2023-05-20T15:53:17.473Z,21.56
2023-05-20T15:58:07.091Z,21.67
2023-05-20T16:02:57.137Z,21.82
2023-05-20T16:07:51.056Z,21.89
2023-05-20T16:12:40.889Z,21.85
2023-05-20T16:17:30.492Z,21.71
2023-05-20T16:22:21.114Z,21.58
2023-05-20T16:27:13.648Z,21.55
2023-05-20T16:32:04.007Z,21.50
2023-05-20T16:36:53.720Z,21.50
2023-05-20T16:41:43.427Z,21.45
2023-05-20T16:46:35.554Z,21.45
2023-05-20T16:51:25.153Z,21.53
2023-05-20T16:56:14.800Z,21.53
2023-05-20T17:01:04.877Z,21.37
2023-05-20T17:05:57.423Z,21.35
2023-05-20T17:10:48.729Z,21.33
2023-05-20T17:15:38.315Z,21.35
2023-05-20T17:20:27.980Z,21.18
2023-05-20T17:25:20.198Z,21.02
2023-05-20T17:30:10.605Z,20.97
2023-05-20T17:35:00.200Z,20.96
2023-05-20T17:39:49.736Z,20.93
2023-05-20T17:44:42.116Z,20.84
2023-05-20T17:49:31.725Z,20.81
2023-05-20T17:54:21.314Z,20.77
2023-05-20T17:59:10.943Z,20.66
2023-05-20T18:04:05.996Z,20.68
2023-05-20T18:08:56.725Z,20.58
2023-05-20T18:13:46.452Z,20.45
2023-05-20T18:18:36.054Z,20.36
2023-05-20T18:23:31.127Z,20.30
2023-05-20T18:28:22.619Z,20.28
2023-05-20T18:33:12.447Z,20.27
2023-05-20T18:38:02.062Z,20.22
2023-05-20T18:42:54.256Z,20.18
2023-05-20T18:47:43.860Z,20.17
2023-05-20T18:52:33.857Z,20.08
2023-05-20T18:57:23.678Z,19.94
2023-05-20T19:02:20.900Z,19.86
2023-05-20T19:07:10.941Z,19.71
2023-05-20T19:12:05.100Z,19.51
2023-05-20T19:16:54.887Z,19.32
2023-05-20T19:21:50.930Z,19.23
2023-05-20T19:26:41.305Z,19.13
2023-05-20T19:31:31.169Z,19.07
2023-05-20T19:36:20.925Z,18.89
2023-05-20T19:41:13.523Z,18.65
2023-05-20T19:46:03.353Z,18.48
2023-05-20T19:50:54.406Z,18.36
2023-05-20T19:55:45.947Z,18.26
2023-05-20T20:00:38.457Z,18.21
2023-05-20T20:05:30.109Z,18.17
2023-05-20T20:10:27.026Z,18.12
2023-05-20T20:15:18.394Z,18.10
2023-05-20T20:20:12.425Z,18.09
2023-05-20T20:25:02.322Z,17.95
2023-05-20T20:29:52.963Z,17.89
2023-05-20T20:34:43.251Z,17.88
2023-05-20T20:39:37.653Z,17.87
2023-05-20T20:44:29.331Z,17.87
2023-05-20T20:49:19.114Z,17.82
2023-05-20T20:54:09.548Z,17.74
2023-05-20T20:59:03.607Z,17.63
2023-05-20T21:03:54.751Z,17.49
2023-05-20T21:08:45.346Z,17.41
2023-05-20T21:13:35.256Z,17.37
2023-05-20T21:18:27.618Z,17.29
2023-05-20T21:23:17.238Z,17.23
2023-05-20T21:28:07.061Z,17.21
2023-05-20T21:32:57.005Z,17.14
2023-05-20T21:37:49.211Z,17.07
2023-05-20T21:42:41.025Z,16.99
2023-05-20T21:47:30.638Z,16.95
2023-05-20T21:52:28.418Z,16.86
2023-05-20T21:57:21.091Z,16.81
2023-05-20T22:02:11.134Z,16.69
2023-05-20T22:07:00.737Z,16.63
2023-05-20T22:11:51.333Z,16.56
2023-05-20T22:16:46.842Z,16.53
2023-05-20T22:21:46.585Z,16.43
2023-05-20T22:26:41.386Z,16.40
2023-05-20T22:31:31.159Z,16.38
2023-05-20T22:36:26.059Z,16.29
2023-05-20T22:41:15.819Z,16.26
2023-05-20T22:46:05.851Z,16.22
2023-05-20T22:50:56.911Z,16.17
2023-05-20T22:55:49.340Z,16.16
2023-05-20T23:00:40.941Z,16.07
2023-05-20T23:05:31.658Z,15.96
2023-05-20T23:10:26.929Z,15.88
2023-05-20T23:15:19.412Z,15.84
2023-05-20T23:20:11.318Z,15.78
2023-05-20T23:25:02.533Z,15.74
2023-05-20T23:29:52.186Z,15.72
2023-05-20T23:34:46.635Z,15.69
2023-05-20T23:39:36.690Z,15.65
2023-05-20T23:44:26.888Z,15.58
2023-05-20T23:49:18.634Z,15.52
2023-05-20T23:54:10.854Z,15.49
2023-05-20T23:59:00.849Z,15.47
